Time;durP1;ratioP1;P1;durP2;ratioP2;P2;SDS_P1;SDS_P2;PMS_P1;PMS_P2;Temp;Humidity;BMP_temperature;BMP_pressure;BME280_temperature;BME280_humidity;BME280_pressure;Samples;Min_cycle;Max_cycle;Signal;HPM_P1;HPM_P2
2022/08/25 00:00:24;;;;;;;6.93;5.68;;;13.80;99.90;;;;;;8309885;28;20033;-90
2022/08/25 00:04:28;;;;;;;9.38;5.45;;;13.80;99.90;;;;;;8306188;28;20032;-91
2022/08/25 00:08:28;;;;;;;7.82;5.38;;;13.70;99.90;;;;;;8310962;28;20032;-90
2022/08/25 00:12:29;;;;;;;6.25;5.57;;;13.60;99.90;;;;;;8299866;28;20021;-90
2022/08/25 00:16:31;;;;;;;5.65;4.38;;;13.70;99.90;;;;;;8288090;28;20511;-90
2022/08/25 00:20:31;;;;;;;7.80;4.93;;;14.00;99.90;;;;;;8308120;28;20122;-90
2022/08/25 00:24:32;;;;;;;6.57;5.18;;;13.60;99.90;;;;;;8299742;28;20040;-91
2022/08/25 00:28:34;;;;;;;7.93;5.40;;;13.40;99.90;;;;;;8296174;28;20106;-90
2022/08/25 00:32:35;;;;;;;6.18;4.47;;;13.30;99.90;;;;;;8286999;28;20033;-92
2022/08/25 00:36:37;;;;;;;6.82;4.40;;;13.20;99.90;;;;;;8282682;28;20022;-90
2022/08/25 00:40:39;;;;;;;5.97;4.80;;;13.00;99.90;;;;;;8286795;28;20422;-91
2022/08/25 00:44:40;;;;;;;7.07;5.47;;;13.00;99.90;;;;;;8289379;28;20116;-91
2022/08/25 00:48:42;;;;;;;5.63;4.90;;;13.00;99.90;;;;;;8280678;28;20028;-91
2022/08/25 00:52:48;;;;;;;9.07;6.50;;;13.10;99.90;;;;;;8288931;28;20573;-91
2022/08/25 00:56:50;;;;;;;7.97;6.18;;;13.30;99.90;;;;;;8265688;28;20029;-91
2022/08/25 01:00:54;;;;;;;7.90;6.13;;;13.40;99.90;;;;;;8275733;28;20153;-91
2022/08/25 01:04:54;;;;;;;7.32;5.65;;;13.80;99.90;;;;;;8280867;28;20041;-90
2022/08/25 01:08:56;;;;;;;6.05;5.18;;;14.00;99.90;;;;;;8289349;28;20045;-91
2022/08/25 01:13:04;;;;;;;6.43;5.13;;;13.70;99.90;;;;;;8283293;28;20403;-90
2022/08/25 01:17:05;;;;;;;6.95;5.70;;;13.50;99.90;;;;;;8282699;28;20023;-91
2022/08/25 01:21:05;;;;;;;9.68;5.80;;;13.40;99.90;;;;;;8274944;28;20038;-90
2022/08/25 01:25:32;;;;;;;7.72;4.15;;;13.60;99.90;;;;;;8287330;28;20033;-90
2022/08/25 01:29:34;;;;;;;5.72;4.00;;;13.60;99.90;;;;;;8286688;28;20050;-90
2022/08/25 01:33:35;;;;;;;5.78;4.80;;;13.20;99.90;;;;;;8282317;28;20034;-91
2022/08/25 01:37:36;;;;;;;6.55;4.47;;;12.90;99.90;;;;;;8276787;28;20042;-91
2022/08/25 01:41:47;;;;;;;8.10;5.07;;;12.70;99.90;;;;;;8283614;28;20026;-91
2022/08/25 01:45:48;;;;;;;7.32;5.30;;;12.60;99.90;;;;;;8278314;28;20191;-90
2022/08/25 01:49:48;;;;;;;7.70;5.28;;;12.70;99.90;;;;;;8276827;28;20032;-90
2022/08/25 01:53:49;;;;;;;6.85;5.50;;;12.70;99.90;;;;;;8279851;28;20022;-90
2022/08/25 01:57:50;;;;;;;9.52;6.53;;;12.90;99.90;;;;;;8271721;28;20054;-90
2022/08/25 02:01:51;;;;;;;6.82;5.20;;;13.00;99.90;;;;;;8282299;28;20026;-90
2022/08/25 02:05:53;;;;;;;6.82;5.50;;;13.00;99.90;;;;;;8284685;28;20080;-90
2022/08/25 02:09:54;;;;;;;6.90;5.10;;;12.80;99.90;;;;;;8286073;28;20026;-91
2022/08/25 02:13:55;;;;;;;7.15;5.78;;;12.60;99.90;;;;;;8289280;28;20081;-90
2022/08/25 02:17:56;;;;;;;6.15;5.03;;;12.40;99.90;;;;;;8277788;28;20022;-90
2022/08/25 02:21:58;;;;;;;9.60;6.43;;;12.30;99.90;;;;;;8276502;28;20030;-90
2022/08/25 02:25:59;;;;;;;9.13;5.78;;;12.50;99.90;;;;;;8274311;28;20031;-90
2022/08/25 02:30:00;;;;;;;8.55;5.63;;;12.50;99.90;;;;;;8291450;28;20026;-90
2022/08/25 02:34:01;;;;;;;8.10;5.95;;;12.60;99.90;;;;;;8278326;28;20089;-90
2022/08/25 02:38:02;;;;;;;8.75;5.63;;;12.50;99.90;;;;;;8276195;28;20040;-90
2022/08/25 02:42:05;;;;;;;7.97;5.80;;;12.50;99.90;;;;;;8281150;28;20026;-90
2022/08/25 02:46:05;;;;;;;7.15;5.60;;;12.30;99.90;;;;;;8279762;28;20497;-91
2022/08/25 02:50:07;;;;;;;7.45;4.93;;;12.20;99.90;;;;;;8278282;28;20037;-91
2022/08/25 02:54:08;;;;;;;6.57;4.75;;;12.10;99.90;;;;;;8297371;28;20022;-91
2022/08/25 02:58:09;;;;;;;7.63;5.28;;;12.00;99.90;;;;;;8293127;28;20018;-90
2022/08/25 03:02:09;;;;;;;9.43;5.85;;;11.90;99.90;;;;;;8286683;28;20061;-91
2022/08/25 03:06:12;;;;;;;8.38;6.15;;;12.00;99.90;;;;;;8291324;28;20447;-90
2022/08/25 03:10:16;;;;;;;9.32;6.57;;;12.10;99.90;;;;;;8279857;28;20497;-90
2022/08/25 03:14:17;;;;;;;8.90;6.22;;;12.10;99.90;;;;;;8286472;28;20015;-90
2022/08/25 03:18:17;;;;;;;13.23;7.00;;;12.10;99.90;;;;;;8286849;28;20041;-90
2022/08/25 03:22:18;;;;;;;8.63;6.47;;;12.20;99.90;;;;;;8290967;28;20537;-88
2022/08/25 03:30:37;;;;;;;6.70;5.38;;;12.80;99.90;;;;;;8285480;28;20510;-90
2022/08/25 03:34:38;;;;;;;6.13;4.80;;;12.60;99.90;;;;;;8289897;28;20034;-90
2022/08/25 03:38:39;;;;;;;5.55;4.47;;;12.50;99.90;;;;;;8274932;28;20388;-90
2022/08/25 03:42:42;;;;;;;6.32;3.97;;;12.10;99.90;;;;;;8271402;28;20061;-91
2022/08/25 03:46:48;;;;;;;7.95;5.45;;;11.70;99.90;;;;;;8282291;28;20026;-90
2022/08/25 03:50:50;;;;;;;7.40;5.72;;;11.60;99.90;;;;;;8277706;28;20632;-90
2022/08/25 03:54:51;;;;;;;8.40;5.60;;;11.60;99.90;;;;;;8279674;28;20053;-90
2022/08/25 03:58:52;;;;;;;8.18;5.72;;;11.60;99.90;;;;;;8277204;28;20050;-90
2022/08/25 04:02:52;;;;;;;8.40;5.70;;;11.40;99.90;;;;;;8283440;28;20053;-90
2022/08/25 04:06:53;;;;;;;13.27;7.15;;;11.40;99.90;;;;;;8273483;28;20057;-90
2022/08/25 04:10:54;;;;;;;12.70;6.85;;;11.50;99.90;;;;;;8276669;28;20556;-89
2022/08/25 04:14:54;;;;;;;9.18;6.75;;;11.60;99.90;;;;;;8286078;28;20022;-90
2022/08/25 04:18:56;;;;;;;8.88;5.18;;;11.50;99.90;;;;;;8283155;28;20033;-91
2022/08/25 04:23:00;;;;;;;8.00;4.75;;;11.70;99.90;;;;;;8271230;28;20025;-91
2022/08/25 04:27:00;;;;;;;10.23;5.18;;;11.50;99.90;;;;;;8285952;28;20471;-91
2022/08/25 04:31:01;;;;;;;7.53;5.10;;;11.20;99.90;;;;;;8281677;28;20058;-91
2022/08/25 04:35:02;;;;;;;7.88;5.20;;;11.20;99.90;;;;;;8282523;28;20030;-91
2022/08/25 04:39:03;;;;;;;10.35;6.05;;;11.30;99.90;;;;;;8278664;28;20023;-91
2022/08/25 04:43:03;;;;;;;10.80;6.57;;;11.50;99.90;;;;;;8276961;28;20109;-92
2022/08/25 04:47:04;;;;;;;9.10;5.88;;;11.40;99.90;;;;;;8278779;28;20054;-90
2022/08/25 04:51:10;;;;;;;9.68;6.10;;;12.00;99.90;;;;;;8280420;28;20026;-90
2022/08/25 04:55:11;;;;;;;10.50;6.35;;;12.30;99.90;;;;;;8285137;28;20164;-90
2022/08/25 04:59:14;;;;;;;5.57;4.72;;;12.20;99.90;;;;;;8277156;28;20022;-91
2022/08/25 05:03:14;;;;;;;4.93;4.22;;;12.10;99.90;;;;;;8287363;28;20057;-90
2022/08/25 05:07:15;;;;;;;6.32;4.45;;;11.90;99.90;;;;;;8268599;28;20082;-90
2022/08/25 05:11:17;;;;;;;5.22;4.10;;;12.00;99.90;;;;;;8277890;28;20026;-90
2022/08/25 05:19:36;;;;;;;12.07;5.47;;;11.90;99.90;;;;;;8292302;28;20121;-90
2022/08/25 05:23:38;;;;;;;5.90;4.47;;;12.10;99.90;;;;;;8283500;28;20030;-90
2022/08/25 05:27:38;;;;;;;4.65;4.13;;;12.20;99.90;;;;;;8278377;28;20079;-89
2022/08/25 05:31:39;;;;;;;5.95;5.15;;;12.30;99.90;;;;;;8280327;28;20054;-91
2022/08/25 05:35:39;;;;;;;6.40;5.28;;;12.40;99.90;;;;;;8278873;28;20053;-91
2022/08/25 05:39:40;;;;;;;10.07;5.25;;;12.50;99.90;;;;;;8287104;28;20037;-90
2022/08/25 05:43:42;;;;;;;5.25;3.88;;;12.60;99.90;;;;;;8283883;28;20033;-90
2022/08/25 05:47:43;;;;;;;5.47;4.65;;;12.80;99.90;;;;;;8276533;28;20030;-90
2022/08/25 05:51:43;;;;;;;5.53;4.80;;;12.90;99.90;;;;;;8280642;28;20032;-91
2022/08/25 05:55:44;;;;;;;5.45;4.45;;;13.30;99.90;;;;;;8273412;28;20026;-90
2022/08/25 05:59:45;;;;;;;6.93;5.28;;;13.80;99.90;;;;;;8280312;28;20073;-91
2022/08/25 06:03:46;;;;;;;6.75;4.75;;;14.20;99.90;;;;;;8288607;28;20030;-90
2022/08/25 06:07:49;;;;;;;5.15;4.35;;;14.60;99.90;;;;;;8278964;28;20057;-90
2022/08/25 06:11:50;;;;;;;6.25;4.88;;;15.00;99.90;;;;;;8280009;28;20023;-91
2022/08/25 06:15:59;;;;;;;4.85;4.15;;;15.20;99.90;;;;;;8276036;28;20472;-92
2022/08/25 06:20:01;;;;;;;7.53;5.30;;;15.20;99.90;;;;;;8286654;28;20030;-91
2022/08/25 06:24:02;;;;;;;7.63;5.70;;;15.40;99.90;;;;;;8281986;28;20030;-92
2022/08/25 06:28:03;;;;;;;8.80;6.80;;;15.80;99.90;;;;;;8291203;28;20073;-92
2022/08/25 06:32:04;;;;;;;13.45;8.25;;;16.40;99.90;;;;;;8281001;28;20034;-92
2022/08/25 06:36:05;;;;;;;12.25;7.90;;;16.70;99.90;;;;;;8286528;28;20074;-92
2022/08/25 06:40:07;;;;;;;11.15;8.07;;;17.00;99.90;;;;;;8291896;28;20033;-92
2022/08/25 06:44:09;;;;;;;10.07;7.15;;;18.10;99.90;;;;;;8279515;28;20053;-92
2022/08/25 06:48:10;;;;;;;9.23;6.38;;;18.90;99.90;;;;;;8280175;28;20022;-93
2022/08/25 06:52:11;;;;;;;7.28;5.72;;;19.60;99.90;;;;;;8275873;28;20484;-93
2022/08/25 06:56:12;;;;;;;10.48;8.02;;;20.30;99.90;;;;;;8279914;28;20069;-93
2022/08/25 07:00:13;;;;;;;12.80;8.43;;;21.10;99.90;;;;;;8291368;28;20022;-93
2022/08/25 07:04:13;;;;;;;11.38;8.27;;;21.90;99.90;;;;;;8283339;28;20471;-93
2022/08/25 07:08:14;;;;;;;12.43;8.65;;;22.50;99.90;;;;;;8290463;28;20109;-93
2022/08/25 07:12:14;;;;;;;12.35;8.13;;;23.10;99.90;;;;;;8291890;28;20029;-92
2022/08/25 07:16:17;;;;;;;9.80;7.63;;;23.30;99.90;;;;;;8289868;28;20036;-92
2022/08/25 07:20:18;;;;;;;11.15;8.73;;;23.20;99.90;;;;;;8291201;28;20492;-92
2022/08/25 07:24:19;;;;;;;12.70;8.43;;;23.80;99.90;;;;;;8297218;28;20109;-93
2022/08/25 07:28:21;;;;;;;11.85;8.65;;;23.90;99.90;;;;;;8288544;28;20053;-92
2022/08/25 07:32:22;;;;;;;12.48;7.85;;;24.00;99.90;;;;;;8279031;28;20551;-91
2022/08/25 07:36:22;;;;;;;12.00;8.52;;;23.90;99.90;;;;;;8290275;28;20053;-91
2022/08/25 07:40:30;;;;;;;10.75;8.25;;;23.90;99.90;;;;;;8289743;28;20473;-92
2022/08/25 07:44:31;;;;;;;11.25;7.80;;;23.90;99.90;;;;;;8281673;28;20498;-92
2022/08/25 07:48:31;;;;;;;11.10;7.85;;;24.00;99.90;;;;;;8279761;28;20034;-92
2022/08/25 07:52:32;;;;;;;9.43;7.20;;;23.60;99.90;;;;;;8284505;28;20030;-92
2022/08/25 07:56:32;;;;;;;8.88;6.32;;;23.80;99.90;;;;;;8288112;28;20030;-92
2022/08/25 08:00:35;;;;;;;12.95;6.43;;;23.70;99.90;;;;;;8281058;28;20029;-91
2022/08/25 08:04:36;;;;;;;10.38;6.45;;;23.70;99.90;;;;;;8285211;28;20030;-92
2022/08/25 08:08:38;;;;;;;9.23;6.25;;;23.80;99.90;;;;;;8280707;28;20565;-91
2022/08/25 08:12:38;;;;;;;8.18;5.88;;;23.90;99.90;;;;;;8281937;28;20038;-92
2022/08/25 08:16:39;;;;;;;9.07;5.63;;;23.60;99.90;;;;;;8279421;28;20025;-91
2022/08/25 08:20:43;;;;;;;8.68;6.43;;;23.80;99.90;;;;;;8287535;28;20085;-91
2022/08/25 08:24:44;;;;;;;7.00;5.20;;;23.90;99.90;;;;;;8290316;28;20026;-92
2022/08/25 08:28:45;;;;;;;7.07;5.38;;;24.30;99.90;;;;;;8285054;28;20068;-92
2022/08/25 08:32:45;;;;;;;6.70;5.47;;;25.00;99.90;;;;;;8286081;28;20030;-93
2022/08/25 08:36:46;;;;;;;6.90;5.00;;;25.60;99.90;;;;;;8287967;28;20029;-92
2022/08/25 08:45:51;;;;;;;6.45;4.53;;;25.30;99.90;;;;;;8287404;28;20041;-92
2022/08/25 08:50:09;;;;;;;5.30;4.53;;;25.40;99.90;;;;;;8285963;28;20026;-92
2022/08/25 08:54:17;;;;;;;4.15;3.75;;;25.70;99.90;;;;;;8296388;28;20365;-92
2022/08/25 08:58:39;;;;;;;4.82;3.90;;;25.50;99.90;;;;;;8291082;28;20433;-92
2022/08/25 09:02:58;;;;;;;4.60;4.05;;;25.50;99.90;;;;;;8291698;28;20037;-93
2022/08/25 09:07:01;;;;;;;4.88;4.18;;;25.50;99.90;;;;;;8278586;28;20053;-92
2022/08/25 09:11:50;;;;;;;8.20;4.18;;;25.70;99.90;;;;;;8276264;28;20022;-92
2022/08/25 09:21:02;;;;;;;6.10;4.03;;;26.10;99.90;;;;;;8281897;28;20515;-93
2022/08/25 09:25:19;;;;;;;4.60;3.90;;;26.40;99.90;;;;;;8297056;28;20029;-93
2022/08/25 09:29:24;;;;;;;4.38;3.75;;;26.60;99.90;;;;;;8287695;28;20022;-93
2022/08/25 09:33:28;;;;;;;6.00;3.92;;;27.10;99.90;;;;;;8302197;28;20060;-92
2022/08/25 09:37:29;;;;;;;5.65;4.07;;;27.00;99.90;;;;;;8303438;28;20022;-92
2022/08/25 09:41:51;;;;;;;6.22;4.20;;;26.70;99.90;;;;;;8308857;28;20030;-92
2022/08/25 09:46:00;;;;;;;4.88;4.25;;;26.50;99.90;;;;;;8297155;28;20535;-92
2022/08/25 09:50:02;;;;;;;5.88;4.53;;;26.30;99.90;;;;;;8296627;28;20025;-92
2022/08/25 09:54:17;;;;;;;4.53;3.95;;;26.50;99.90;;;;;;8292372;28;20022;-91
2022/08/25 09:58:21;;;;;;;4.97;4.40;;;26.90;99.90;;;;;;8303082;28;20022;-92
2022/08/25 10:02:27;;;;;;;5.03;4.25;;;27.10;99.90;;;;;;8310874;28;20017;-92
2022/08/25 10:06:36;;;;;;;5.47;4.30;;;27.20;99.90;;;;;;8302026;28;20045;-93
2022/08/25 10:10:43;;;;;;;4.97;4.30;;;27.70;99.90;;;;;;8309678;28;20107;-92
2022/08/25 10:14:43;;;;;;;7.70;4.38;;;27.70;99.90;;;;;;8311304;28;20025;-91
2022/08/25 10:18:44;;;;;;;5.47;4.20;;;27.20;99.90;;;;;;8297200;28;20032;-92
2022/08/25 10:22:45;;;;;;;5.30;4.10;;;27.00;99.90;;;;;;8310454;28;20030;-92
2022/08/25 10:27:41;;;;;;;6.47;4.00;;;27.40;99.90;;;;;;8316162;28;20487;-92
2022/08/25 10:31:47;;;;;;;4.30;3.90;;;28.30;99.90;;;;;;8270025;28;20042;-92
2022/08/25 10:35:54;;;;;;;4.65;4.07;;;28.80;99.90;;;;;;8290675;28;20019;-92
2022/08/25 10:40:00;;;;;;;4.07;3.67;;;28.60;99.90;;;;;;8294242;28;20042;-93
2022/08/25 10:48:59;;;;;;;5.40;3.33;;;30.30;99.90;;;;;;8286846;28;20084;-93
2022/08/25 10:53:25;;;;;;;4.07;3.60;;;30.50;99.90;;;;;;8299238;28;20022;-93
2022/08/25 10:57:36;;;;;;;3.60;3.25;;;31.20;99.90;;;;;;8293120;28;20014;-92
2022/08/25 11:02:05;;;;;;;3.70;3.40;;;31.20;99.90;;;;;;8287393;28;20034;-93
2022/08/25 11:06:17;;;;;;;3.65;3.35;;;30.20;99.90;;;;;;8297486;28;20026;-92
2022/08/25 11:10:24;;;;;;;4.40;4.00;;;30.20;99.90;;;;;;8313189;28;20049;-93
2022/08/25 11:14:55;;;;;;;3.65;3.35;;;31.40;99.80;;;;;;8300205;28;20085;-92
2022/08/25 11:19:34;;;;;;;3.53;3.22;;;32.20;99.10;;;;;;8293938;28;20412;-93
2022/08/25 11:23:48;;;;;;;3.53;3.22;;;32.80;95.00;;;;;;8291249;28;20026;-93
2022/08/25 11:27:58;;;;;;;3.58;3.08;;;33.40;91.60;;;;;;8286048;28;20026;-92
2022/08/25 11:32:00;;;;;;;4.97;3.40;;;32.70;91.70;;;;;;8293449;28;20037;-91
2022/08/25 11:36:11;;;;;;;3.88;3.22;;;33.40;92.30;;;;;;8288681;28;20089;-93
2022/08/25 11:40:47;;;;;;;4.50;2.90;;;32.60;92.50;;;;;;8298598;28;20021;-93
2022/08/25 11:45:29;;;;;;;6.57;3.30;;;32.40;91.30;;;;;;8299312;28;20014;-93
2022/08/25 11:49:49;;;;;;;3.60;3.00;;;33.70;91.10;;;;;;8313782;28;20058;-93
2022/08/25 11:54:16;;;;;;;3.40;3.10;;;34.70;80.50;;;;;;8292140;28;20045;-92
2022/08/25 11:58:19;;;;;;;2.92;2.60;;;33.50;86.80;;;;;;8292695;28;20038;-91
2022/08/25 12:02:35;;;;;;;5.78;3.03;;;33.30;80.50;;;;;;8293692;28;20018;-93
2022/08/25 12:06:35;;;;;;;3.58;3.25;;;33.30;84.60;;;;;;8295861;28;20032;-93
2022/08/25 12:11:04;;;;;;;3.97;3.15;;;33.70;79.90;;;;;;8289989;28;20560;-94
2022/08/25 12:15:25;;;;;;;4.95;3.28;;;33.80;81.50;;;;;;8293053;28;20113;-94
2022/08/25 12:19:27;;;;;;;;;;;34.60;80.60;;;;;;8300478;28;20025;-92
2022/08/25 12:23:41;;;;;;;3.40;3.10;;;34.60;82.40;;;;;;8297042;28;19994;-92
2022/08/25 12:27:44;;;;;;;3.15;2.85;;;34.90;78.60;;;;;;8288843;28;20495;-93
2022/08/25 12:31:55;;;;;;;4.15;3.17;;;36.20;76.90;;;;;;8293732;28;20037;-92
2022/08/25 12:36:09;;;;;;;3.88;2.80;;;36.20;72.40;;;;;;8290358;28;20061;-91
2022/08/25 12:40:32;;;;;;;3.22;2.70;;;37.40;63.70;;;;;;8284484;28;20094;-92
2022/08/25 12:44:38;;;;;;;3.95;2.90;;;38.00;63.20;;;;;;8290279;28;20355;-93
2022/08/25 12:48:53;;;;;;;3.53;2.65;;;37.20;68.60;;;;;;8290513;28;20027;-92
2022/08/25 12:53:00;;;;;;;5.82;3.17;;;37.50;62.10;;;;;;8301612;28;20030;-92
2022/08/25 12:57:17;;;;;;;3.08;2.83;;;38.30;60.00;;;;;;8305955;28;20113;-93
2022/08/25 13:01:34;;;;;;;3.05;2.75;;;37.30;61.20;;;;;;8287586;28;20018;-92
2022/08/25 13:05:40;;;;;;;5.82;3.08;;;35.10;70.00;;;;;;8292222;28;20076;-92
2022/08/25 13:10:03;;;;;;;3.28;2.97;;;34.00;72.00;;;;;;8292805;28;20041;-92
2022/08/25 13:14:37;;;;;;;3.25;2.80;;;33.70;74.10;;;;;;8285464;28;20014;-91
2022/08/25 13:18:38;;;;;;;4.15;2.63;;;35.30;65.70;;;;;;8292348;28;20052;-92
2022/08/25 13:22:39;;;;;;;3.75;2.90;;;37.50;65.20;;;;;;8298773;28;20393;-93
2022/08/25 13:26:42;;;;;;;2.80;2.55;;;38.20;56.30;;;;;;8290446;28;20033;-92
2022/08/25 13:30:43;;;;;;;2.90;2.60;;;38.20;57.10;;;;;;8275781;28;20030;-93
2022/08/25 13:34:43;;;;;;;3.20;2.90;;;37.70;56.60;;;;;;8297531;28;20626;-92
2022/08/25 13:38:45;;;;;;;2.92;2.42;;;39.60;51.50;;;;;;8298816;28;20126;-94
2022/08/25 13:42:49;;;;;;;2.60;2.40;;;40.00;52.20;;;;;;8294770;28;20624;-92
2022/08/25 13:47:07;;;;;;;4.22;2.40;;;39.80;50.10;;;;;;8295537;28;20450;-93
2022/08/25 13:51:26;;;;;;;2.85;2.40;;;40.50;50.70;;;;;;8293367;28;20061;-93
2022/08/25 13:56:01;;;;;;;3.00;2.60;;;40.80;49.90;;;;;;8282995;28;20019;-93
2022/08/25 14:00:08;;;;;;;2.45;2.25;;;41.10;48.30;;;;;;8263743;28;20041;-93
2022/08/25 14:04:41;;;;;;;4.78;2.55;;;40.90;47.30;;;;;;8292229;28;20127;-93
2022/08/25 14:08:47;;;;;;;2.97;2.38;;;40.70;45.30;;;;;;8269579;28;20035;-92
2022/08/25 14:13:08;;;;;;;3.00;2.60;;;41.10;47.20;;;;;;8287337;28;20086;-92
2022/08/25 14:17:08;;;;;;;;;;;37.70;51.30;;;;;;8294910;28;20461;-92
2022/08/25 14:21:10;;;;;;;4.22;2.55;;;37.00;55.40;;;;;;8287009;28;19913;-92
2022/08/25 14:25:11;;;;;;;3.97;2.80;;;37.50;49.60;;;;;;8297890;28;20018;-92
2022/08/25 14:29:12;;;;;;;3.25;2.63;;;38.90;52.10;;;;;;8292587;28;20037;-92
2022/08/25 14:33:15;;;;;;;2.45;2.25;;;37.50;52.10;;;;;;8281241;28;20118;-93
2022/08/25 14:37:17;;;;;;;2.55;2.35;;;36.00;55.70;;;;;;8275543;28;20053;-91
2022/08/25 14:41:18;;;;;;;2.80;2.45;;;36.40;52.40;;;;;;8284843;28;20121;-93
2022/08/25 14:45:18;;;;;;;2.45;2.25;;;36.50;55.00;;;;;;8289269;28;20092;-93
2022/08/25 14:49:24;;;;;;;4.38;2.38;;;36.00;55.30;;;;;;8286812;28;20492;-93
2022/08/25 14:53:25;;;;;;;2.30;2.10;;;35.70;56.60;;;;;;8303206;28;20022;-92
2022/08/25 14:57:26;;;;;;;2.53;2.33;;;35.40;55.80;;;;;;8293617;28;20089;-93
2022/08/25 15:01:28;;;;;;;2.95;2.50;;;34.40;56.50;;;;;;8292190;28;20026;-92
2022/08/25 15:05:28;;;;;;;3.58;2.67;;;32.70;61.00;;;;;;8290183;28;20501;-93
2022/08/25 15:09:29;;;;;;;3.15;2.85;;;30.30;67.00;;;;;;8302813;28;20125;-93
2022/08/25 15:13:29;;;;;;;3.22;2.92;;;29.70;70.00;;;;;;8287554;28;20062;-92
2022/08/25 15:17:30;;;;;;;3.40;2.70;;;31.20;70.50;;;;;;8289840;28;20100;-92
2022/08/25 15:21:31;;;;;;;3.28;2.40;;;33.40;63.90;;;;;;8277079;28;20030;-92
2022/08/25 15:25:31;;;;;;;2.75;2.55;;;34.20;60.50;;;;;;8277124;28;20014;-92
2022/08/25 15:29:34;;;;;;;3.15;2.60;;;34.70;58.50;;;;;;8287331;28;20480;-94
2022/08/25 15:33:34;;;;;;;3.10;2.80;;;37.20;55.40;;;;;;8286938;28;21346;-94
2022/08/25 15:37:35;;;;;;;3.33;2.22;;;38.40;56.50;;;;;;8265294;28;20026;-92
2022/08/25 15:41:36;;;;;;;3.00;2.63;;;38.00;51.10;;;;;;8276181;28;20093;-92
2022/08/25 15:45:37;;;;;;;4.10;2.80;;;37.50;52.80;;;;;;8270421;28;20036;-93
2022/08/25 15:49:37;;;;;;;3.13;2.80;;;36.90;57.20;;;;;;8268532;28;20014;-92
2022/08/25 15:53:38;;;;;;;2.78;2.55;;;35.90;57.80;;;;;;8266565;28;20064;-93
2022/08/25 15:57:39;;;;;;;3.38;3.08;;;35.60;58.60;;;;;;8262901;28;20026;-93
2022/08/25 16:01:40;;;;;;;3.85;3.00;;;31.90;66.60;;;;;;8277639;28;20411;-93
2022/08/25 16:05:42;;;;;;;2.97;2.60;;;29.10;79.40;;;;;;8280778;28;20042;-95
2022/08/25 16:09:43;;;;;;;3.53;2.92;;;27.80;78.00;;;;;;8281216;28;20054;-91
2022/08/25 16:13:44;;;;;;;3.53;3.22;;;27.10;78.70;;;;;;8282760;28;20030;-92
2022/08/25 16:17:45;;;;;;;3.17;2.78;;;26.90;84.20;;;;;;8280019;28;20033;-92
2022/08/25 16:21:45;;;;;;;3.15;2.85;;;26.60;83.20;;;;;;8284800;28;20033;-91
2022/08/25 16:25:48;;;;;;;3.33;2.90;;;26.50;86.30;;;;;;8292244;28;20029;-92
2022/08/25 16:29:48;;;;;;;3.30;2.80;;;26.50;88.70;;;;;;8286717;28;20042;-91
2022/08/25 16:33:50;;;;;;;5.45;3.30;;;26.40;90.90;;;;;;8284600;28;20038;-92
2022/08/25 16:37:51;;;;;;;3.15;2.85;;;26.30;91.50;;;;;;8297318;28;20041;-92
2022/08/25 16:41:51;;;;;;;3.60;3.28;;;26.20;91.40;;;;;;8289211;28;20022;-92
2022/08/25 16:46:01;;;;;;;3.25;2.95;;;26.10;91.80;;;;;;8301122;28;20041;-92
2022/08/25 16:50:02;;;;;;;7.25;3.58;;;25.80;93.30;;;;;;8308467;28;20049;-93
2022/08/25 16:58:24;;;;;;;5.78;3.38;;;25.30;94.90;;;;;;8301653;28;20052;-93
2022/08/25 17:02:24;;;;;;;3.40;3.10;;;24.90;97.50;;;;;;8293038;28;20145;-93
2022/08/25 17:06:27;;;;;;;3.63;3.33;;;24.30;96.80;;;;;;8288380;28;20029;-92
2022/08/25 17:10:27;;;;;;;3.67;3.38;;;24.20;97.30;;;;;;8298286;28;20006;-92
2022/08/25 17:14:28;;;;;;;5.88;3.38;;;24.00;98.20;;;;;;8277891;28;20121;-93
2022/08/25 17:18:29;;;;;;;5.05;3.67;;;23.90;99.40;;;;;;8279012;28;20030;-93
2022/08/25 17:22:29;;;;;;;3.47;3.08;;;23.60;99.90;;;;;;8277570;28;20086;-92
2022/08/25 17:26:30;;;;;;;6.88;3.47;;;23.30;99.90;;;;;;8292708;28;20480;-93
2022/08/25 17:30:31;;;;;;;6.45;3.58;;;23.00;99.90;;;;;;8289907;28;20641;-92
2022/08/25 17:34:31;;;;;;;5.47;3.78;;;22.90;99.90;;;;;;8290240;28;20034;-92
2022/08/25 17:38:35;;;;;;;5.25;3.47;;;22.80;99.90;;;;;;8290127;28;20090;-93
2022/08/25 17:42:36;;;;;;;4.28;3.88;;;22.60;99.90;;;;;;8275514;28;20493;-92
2022/08/25 17:46:37;;;;;;;6.78;3.67;;;22.70;99.90;;;;;;8270305;28;20058;-92
2022/08/25 17:50:38;;;;;;;5.10;4.40;;;22.30;99.90;;;;;;8277373;28;20034;-92
2022/08/25 17:54:46;;;;;;;5.28;3.97;;;22.10;99.90;;;;;;8290336;28;20022;-93
2022/08/25 17:58:47;;;;;;;4.28;3.42;;;22.00;99.90;;;;;;8297716;28;20038;-92
2022/08/25 18:02:48;;;;;;;4.22;3.60;;;21.80;99.90;;;;;;8288180;28;20029;-93
2022/08/25 18:06:50;;;;;;;4.30;3.90;;;21.50;99.90;;;;;;8294003;28;20308;-92
2022/08/25 18:10:55;;;;;;;4.63;3.50;;;21.50;99.90;;;;;;8284592;28;20046;-92
2022/08/25 18:14:56;;;;;;;6.05;4.00;;;21.70;99.90;;;;;;8283730;28;20026;-91
2022/08/25 18:18:57;;;;;;;6.15;5.07;;;21.40;99.90;;;;;;8294356;28;20026;-92
2022/08/25 18:22:58;;;;;;;8.63;5.80;;;21.10;99.90;;;;;;8294625;28;20110;-92
2022/08/25 18:26:59;;;;;;;7.32;5.30;;;20.80;99.90;;;;;;8294364;28;20026;-92
2022/08/25 18:31:00;;;;;;;7.47;5.80;;;20.60;99.90;;;;;;8297851;28;20026;-93
2022/08/25 18:35:01;;;;;;;8.73;5.70;;;20.40;99.90;;;;;;8310859;28;20030;-92
2022/08/25 18:43:24;;;;;;;7.97;5.67;;;19.90;99.90;;;;;;8292712;28;20037;-92
2022/08/25 18:47:24;;;;;;;7.65;5.47;;;19.80;99.90;;;;;;8303820;28;20467;-92
2022/08/25 18:51:25;;;;;;;6.78;5.82;;;19.80;99.90;;;;;;8288867;28;20031;-92
2022/08/25 18:55:26;;;;;;;5.95;5.30;;;19.80;99.90;;;;;;8285701;28;20027;-93
2022/08/25 18:59:26;;;;;;;6.45;5.43;;;19.70;99.90;;;;;;8284851;28;20030;-93
2022/08/25 19:03:27;;;;;;;7.70;5.60;;;19.50;99.90;;;;;;8283912;28;20022;-93
2022/08/25 19:07:28;;;;;;;6.18;5.53;;;19.40;99.90;;;;;;8283474;28;20627;-93
2022/08/25 19:11:28;;;;;;;7.22;5.80;;;19.20;99.90;;;;;;8285157;28;20029;-93
2022/08/25 19:15:30;;;;;;;7.00;5.43;;;19.10;99.90;;;;;;8284444;28;20101;-93
2022/08/25 19:19:30;;;;;;;6.75;5.80;;;19.10;99.90;;;;;;8287116;28;20504;-92
2022/08/25 19:23:31;;;;;;;6.32;5.50;;;19.10;99.90;;;;;;8283179;28;20153;-92
2022/08/25 19:27:33;;;;;;;5.95;5.35;;;19.40;99.90;;;;;;8274312;28;20054;-93
2022/08/25 19:31:34;;;;;;;6.05;5.45;;;19.00;99.90;;;;;;8273266;28;20117;-92
2022/08/25 19:35:45;;;;;;;6.10;5.28;;;18.90;99.90;;;;;;8277706;28;20026;-93
2022/08/25 19:39:53;;;;;;;7.15;5.13;;;18.80;99.90;;;;;;8278175;28;20030;-92
2022/08/25 19:44:03;;;;;;;8.63;5.68;;;18.60;99.90;;;;;;8279036;28;20097;-92
2022/08/25 19:48:04;;;;;;;6.47;5.73;;;18.40;99.90;;;;;;8286179;28;20044;-92
2022/08/25 19:52:07;;;;;;;10.60;5.85;;;18.40;99.90;;;;;;8274223;28;20054;-92
2022/08/25 19:56:09;;;;;;;7.25;5.90;;;18.30;99.90;;;;;;8285949;28;20484;-92
2022/08/25 20:00:23;;;;;;;5.65;5.15;;;18.20;99.90;;;;;;8273040;28;20048;-92
2022/08/25 20:04:24;;;;;;;7.63;6.18;;;18.00;99.90;;;;;;8286229;28;20080;-92
2022/08/25 20:08:24;;;;;;;7.05;6.05;;;17.70;99.90;;;;;;8277508;28;20025;-93
2022/08/25 20:12:26;;;;;;;8.38;5.93;;;17.30;99.90;;;;;;8278715;28;20022;-93
2022/08/25 20:16:27;;;;;;;6.95;6.25;;;17.00;99.90;;;;;;8275222;28;20065;-92
2022/08/25 20:20:27;;;;;;;10.35;7.30;;;16.80;99.90;;;;;;8274324;28;20488;-93
2022/08/25 20:28:47;;;;;;;9.90;7.15;;;17.00;99.90;;;;;;8268577;28;20089;-92
2022/08/25 20:32:49;;;;;;;9.48;6.95;;;17.10;99.90;;;;;;8279884;28;20491;-92
2022/08/25 20:36:49;;;;;;;9.60;8.52;;;17.20;99.90;;;;;;8269039;28;20058;-91
2022/08/25 20:40:50;;;;;;;10.00;8.90;;;17.30;99.90;;;;;;8253304;28;20041;-93
2022/08/25 20:44:51;;;;;;;8.93;8.02;;;17.30;99.90;;;;;;8266420;28;20415;-92
2022/08/25 20:48:52;;;;;;;10.52;7.55;;;17.30;99.90;;;;;;8276214;28;20476;-92
2022/08/25 20:52:55;;;;;;;9.35;7.65;;;17.20;99.90;;;;;;8275604;28;20033;-93
2022/08/25 20:56:56;;;;;;;8.55;7.50;;;16.90;99.90;;;;;;8278161;28;20022;-92
2022/08/25 21:00:56;;;;;;;8.50;7.60;;;16.70;99.90;;;;;;8270074;28;20121;-93
2022/08/25 21:04:57;;;;;;;9.52;7.55;;;16.50;99.90;;;;;;8289776;28;20014;-92
2022/08/25 21:08:57;;;;;;;8.45;7.22;;;16.30;99.90;;;;;;8296224;28;20130;-91
2022/08/25 21:12:58;;;;;;;8.43;7.45;;;16.30;99.90;;;;;;8286892;28;20091;-91
2022/08/25 21:16:59;;;;;;;8.13;7.28;;;16.50;99.90;;;;;;8286808;28;20030;-92
2022/08/25 21:21:13;;;;;;;8.52;7.45;;;16.60;99.90;;;;;;8291500;28;20030;-91
2022/08/25 21:25:14;;;;;;;8.98;6.93;;;16.60;99.90;;;;;;8291271;28;20109;-91
2022/08/25 21:29:16;;;;;;;9.18;7.50;;;16.50;99.90;;;;;;8296013;28;20025;-91
2022/08/25 21:33:17;;;;;;;10.13;7.05;;;16.40;99.90;;;;;;8297635;28;20095;-91
2022/08/25 21:37:18;;;;;;;9.68;7.78;;;16.20;99.90;;;;;;8290707;28;20037;-92
2022/08/25 21:41:22;;;;;;;10.02;7.95;;;15.80;99.90;;;;;;8303369;28;20017;-91
2022/08/25 21:45:23;;;;;;;9.43;8.13;;;15.90;99.90;;;;;;8302619;28;20064;-92